• Join FlightAware (Why Join?)
  • Login
  • US Flag 
11:24AM EDT


 

Airport Tracker/Info


-or-


 

Live Flight TrackerFlight Track Log ✈ XA-PBT ✈ 06-Jun-2013 ✈ KTEB - MMAN / NTR

Flight Track Log - Related Links

Times and Time Zones

All times are in EDT time to prevent confusion due to time zone crossing. See the XA-PBT flight status page for this flight to view local times or setup timezone preferences in your user account.

Time Position Orientation Groundspeed Altitude Reporting Facility
EDT Latitude Longitude Course Direction KTS MPH feet Rate Location/Type
06:12PM 40.8333 -74.1000 243° Southwest 172 198 1,000  Level New York TRACON
06:13PM 40.8167 -74.1500 246° West 195 224 1,900 1,260 Climbing New York TRACON
06:14PM 40.8333 -74.2167 288° West 205 236 3,500 1,980 Climbing New York TRACON
06:15PM 40.8500 -74.3167 282° West 270 311 5,900 2,820 Climbing New York TRACON
06:16PM 40.8667 -74.4167 282° West 286 329 9,500 3,300 Climbing New York TRACON
06:17PM 40.8667 -74.5167 270° West 273 314 12,900 2,340 Climbing New York TRACON
06:18PM 40.5413 -74.8673 243° Southwest  Level Estimated
06:19PM 40.7767 -74.6650 231° Southwest 289 333 16,300  Level New York Center
06:20PM 40.7281 -74.7444 231° Southwest 310 357 17,900 1,560 Climbing New York Center
06:21PM 40.6728 -74.8369 232° Southwest 316 364 19,400 1,500 Climbing New York Center
06:22PM 40.6197 -74.9294 233° Southwest 316 364 21,000 1,500 Climbing New York Center
06:23PM 40.5600 -75.0242 230° Southwest 328 377 22,500 1,260 Climbing New York Center
06:24PM 40.5003 -75.1217 231° Southwest 340 391 23,600 1,140 Climbing New York Center
06:25PM 40.4358 -75.2239 230° Southwest 351 404 24,800 1,260 Climbing New York Center
06:26PM 40.3736 -75.3261 231° Southwest 361 415 26,100 1,500 Climbing New York Center
06:27PM 40.3136 -75.4256 232° Southwest 366 421 27,800 1,860 Climbing New York Center
06:28PM 40.2536 -75.5194 230° Southwest 356 410 29,900 1,980 Climbing New York Center
06:29PM 40.1933 -75.6131 230° Southwest 335 386 31,800 1,500 Climbing New York Center
06:30PM 40.1397 -75.7017 232° Southwest 324 373 33,000 1,140 Climbing New York Center
06:31PM 40.0858 -75.7903 232° Southwest 319 367 34,100 1,020 Climbing New York Center
06:32PM 40.0300 -75.8756 229° Southwest 314 361 35,100 960 Climbing New York Center
06:33PM 39.9783 -75.9639 233° Southwest 314 361 36,000 240 Climbing New York Center
06:35PM 39.8603 -76.1483 230° Southwest 329 379 36,000  Level Washington Center
06:36PM 39.7953 -76.2478 230° Southwest 352 405 36,000  Level Washington Center
06:37PM 39.7342 -76.3525 233° Southwest 362 417 36,000  Level Washington Center
06:38PM 39.6647 -76.4514 228° Southwest 368 423 36,000  Level Washington Center
06:39PM 39.5953 -76.5503 228° Southwest 380 437 36,000  Level Washington Center
06:40PM 39.5319 -76.6569 232° Southwest 380 437 36,000  Level Washington Center
06:41PM 39.4622 -76.7556 228° Southwest 375 432 36,000  Level Washington Center
06:42PM 39.4008 -76.8567 232° Southwest 369 425 36,000  Level Washington Center
06:43PM 39.3372 -76.9547 230° Southwest 369 425 36,000 480 Level Washington Center
06:44PM 39.2819 -77.0450 232° Southwest 369 425 37,000 900 Climbing Washington Center
06:45PM 39.2203 -77.1375 229° Southwest 363 418 37,900 480 Climbing Washington Center
06:46PM 39.1586 -77.2297 229° Southwest 353 406 38,000  Climbing Washington Center
06:47PM 39.0903 -77.3378 231° Southwest 353 406 38,000 120 Level Washington Center
06:48PM 39.0264 -77.4381 231° Southwest 353 406 38,300 360 Climbing Washington Center
06:49PM 38.9625 -77.5325 229° Southwest 353 406 38,800 540 Climbing Washington Center
06:50PM 38.8961 -77.6319 229° Southwest 369 425 39,400 480 Climbing Washington Center
06:51PM 38.8383 -77.7183 229° Southwest 364 419 39,800 300 Climbing Washington Center
06:52PM 38.7656 -77.8281 230° Southwest 362 417 40,000 60 Climbing Washington Center
06:53PM 38.7075 -77.9169 230° Southwest 362 417 40,000  Level Washington Center
06:54PM 38.6472 -78.0106 231° Southwest 349 402 40,000  Level Washington Center
06:55PM 38.5850 -78.1042 230° Southwest 349 402 40,000  Level Washington Center
06:56PM 38.5225 -78.1975 229° Southwest 349 402 40,000  Level Washington Center
06:57PM 38.4600 -78.2883 229° Southwest 349 402 40,000  Level Washington Center
06:58PM 38.3994 -78.3814 230° Southwest 349 402 40,000  Level Washington Center
06:59PM 38.3367 -78.4744 229° Southwest 349 402 40,000  Level Washington Center
07:00PM 38.2869 -78.5464 229° Southwest 349 402 40,000  Level Washington Center
07:01PM 38.2197 -78.6522 231° Southwest 342 394 40,000  Level Washington Center
07:02PM 38.1592 -78.7394 229° Southwest 342 394 40,000  Level Washington Center
07:03PM 38.0983 -78.8267 228° Southwest 337 388 40,000  Level Washington Center
07:04PM 38.0461 -78.9036 229° Southwest 337 388 40,000  Level Washington Center
07:05PM 37.9897 -78.9881 230° Southwest 332 382 40,000  Level Washington Center
07:06PM 37.9289 -79.0722 228° Southwest 332 382 40,000  Level Washington Center
07:07PM 37.8783 -79.1592 234° Southwest 325 374 40,000  Level Washington Center
07:08PM 37.8294 -79.2594 238° Southwest 315 362 40,000  Level Washington Center
07:09PM 37.7936 -79.3339 239° Southwest 315 362 40,000  Level Washington Center
07:10PM 37.7381 -79.4467 238° Southwest 315 362 40,000  Level Washington Center
07:11PM 37.6914 -79.5336 236° Southwest 321 369 40,000  Level Washington Center
07:12PM 37.6358 -79.6383 236° Southwest 326 375 40,000  Level Washington Center
07:14PM 37.5219 -79.8658 238° Southwest 345 397 40,000  Level Atlanta Center
07:15PM 37.4711 -79.9678 238° Southwest 345 397 40,000  Level Atlanta Center
07:16PM 37.4122 -80.0781 236° Southwest 345 397 40,000  Level Atlanta Center
07:17PM 37.3614 -80.1800 238° Southwest 350 403 40,000  Level Atlanta Center
07:18PM 37.3061 -80.2844 236° Southwest 350 403 40,000  Level Atlanta Center
07:19PM 37.2550 -80.3858 238° Southwest 350 403 40,000  Level Atlanta Center
07:20PM 37.2078 -80.4767 237° Southwest 350 403 40,000  Level Atlanta Center
07:21PM 37.1544 -80.5806 237° Southwest 350 403 40,000  Level Atlanta Center
07:22PM 37.1008 -80.6819 236° Southwest 350 403 40,000  Level Atlanta Center
07:23PM 37.0522 -80.8061 244° Southwest 356 410 40,000  Level Atlanta Center
07:24PM 37.0133 -80.9169 246° West 356 410 40,000  Level Atlanta Center
07:25PM 36.9722 -81.0303 246° West 356 410 40,000  Level Atlanta Center
07:26PM 36.9292 -81.1436 245° Southwest 361 415 40,000  Level Atlanta Center
07:27PM 36.8939 -81.2461 247° West 361 415 40,000  Level Atlanta Center
07:28PM 36.8528 -81.3564 245° Southwest 361 415 40,000  Level Atlanta Center
07:29PM 36.8133 -81.4719 247° West 361 415 40,000  Level Atlanta Center
07:30PM 36.7722 -81.5925 247° West 356 410 40,000  Level Atlanta Center
07:31PM 36.7306 -81.7078 246° West 361 415 40,000  Level Atlanta Center
07:32PM 36.6889 -81.8175 245° Southwest 361 415 40,000 -300 Level Atlanta Center
07:33PM 36.6469 -81.9300 245° Southwest 361 415 39,500  Descending Atlanta Center
07:34PM 36.6053 -82.0450 246° West 361 415 40,000 240 Climbing Atlanta Center
07:35PM 36.5631 -82.1572 245° Southwest 361 415 40,000  Level Atlanta Center
07:36PM 36.5272 -82.2561 246° West 361 415 40,000  Level Atlanta Center
07:37PM 36.4828 -82.3708 244° Southwest 361 415 40,000  Level Atlanta Center
07:38PM 36.4406 -82.4825 245° Southwest 361 415 40,000  Level Atlanta Center
07:39PM 36.3981 -82.5969 245° Southwest 361 415 40,000  Level Atlanta Center
07:40PM 36.3556 -82.7111 245° Southwest 361 415 40,000  Level Atlanta Center
07:41PM 36.3131 -82.8253 245° Southwest 361 415 40,000  Level Atlanta Center
07:42PM 36.2681 -82.9392 244° Southwest 361 415 40,000  Level Atlanta Center
07:43PM 36.2253 -83.0531 245° Southwest 361 415 40,000  Level Atlanta Center
07:44PM 36.1825 -83.1667 245° Southwest 361 415 40,000  Level Atlanta Center
07:45PM 36.1414 -83.2803 246° West 361 415 40,000  Level Atlanta Center
07:46PM 36.0942 -83.4042 245° Southwest 361 415 40,000  Level Atlanta Center
07:47PM 36.0447 -83.5175 242° Southwest 361 415 40,000  Level Atlanta Center
07:48PM 35.9844 -83.6103 231° Southwest 361 415 40,000  Level Atlanta Center
07:49PM 35.9181 -83.7053 229° Southwest 361 415 40,000  Level Atlanta Center
07:50PM 35.8536 -83.8031 231° Southwest 367 422 40,000  Level Atlanta Center
07:51PM 35.7892 -83.8981 230° Southwest 367 422 40,000  Level Atlanta Center
07:52PM 35.7244 -83.9953 231° Southwest 367 422 40,000  Level Atlanta Center
07:53PM 35.6578 -84.0897 229° Southwest 372 428 40,000  Level Atlanta Center
07:54PM 35.5908 -84.1894 230° Southwest 372 428 40,000  Level Atlanta Center
07:55PM 35.5261 -84.2836 230° Southwest 372 428 40,000  Level Atlanta Center
07:56PM 35.4592 -84.3806 230° Southwest 372 428 40,000  Level Atlanta Center
07:57PM 35.3919 -84.4769 229° Southwest 372 428 40,000  Level Atlanta Center
07:58PM 35.3250 -84.5758 230° Southwest 372 428 40,000  Level Atlanta Center
07:59PM 35.2578 -84.6722 230° Southwest 372 428 40,000  Level Atlanta Center
08:00PM 35.1944 -84.7656 230° Southwest 372 428 40,000  Level Atlanta Center
08:01PM 35.1292 -84.8592 230° Southwest 372 428 40,000  Level Atlanta Center
08:02PM 35.0619 -84.9547 229° Southwest 372 428 40,000  Level Atlanta Center
08:03PM 34.9942 -85.0531 230° Southwest 372 428 40,000  Level Atlanta Center
08:04PM 34.9267 -85.1508 230° Southwest 377 434 40,000  Level Atlanta Center
08:05PM 34.8589 -85.2486 230° Southwest 377 434 40,000  Level Atlanta Center
08:06PM 34.7933 -85.3514 232° Southwest 377 434 40,000  Level Atlanta Center
08:07PM 34.7378 -85.4694 240° Southwest 389 448 40,000  Level Atlanta Center
08:08PM 34.6822 -85.5569 232° Southwest 389 448 40,000  Level Atlanta Center
08:09PM 34.6225 -85.6669 237° Southwest 389 448 40,000  Level Atlanta Center
08:10PM 34.5647 -85.7742 237° Southwest 394 453 40,000  Level Atlanta Center
08:11PM 34.5047 -85.8789 235° Southwest 389 448 40,000  Level Atlanta Center
08:12PM 34.4447 -85.9908 237° Southwest 395 455 40,000  Level Atlanta Center
08:13PM 34.3844 -86.0978 236° Southwest 395 455 40,000  Level Atlanta Center
08:14PM 34.3219 -86.2094 236° Southwest 395 455 40,000  Level Atlanta Center
08:15PM 34.2617 -86.3158 236° Southwest 395 455 40,000  Level Atlanta Center
08:16PM 34.2031 -86.4275 238° Southwest 395 455 40,000  Level Atlanta Center
08:17PM 34.1406 -86.5361 235° Southwest 400 460 40,000  Level Atlanta Center
08:18PM 34.0775 -86.6469 236° Southwest 400 460 40,000  Level Atlanta Center
08:19PM 34.0147 -86.7581 236° Southwest 400 460 40,000  Level Atlanta Center
08:20PM 33.9536 -86.8711 237° Southwest 405 466 40,000  Level Atlanta Center
08:21PM 33.8947 -86.9819 237° Southwest 405 466 40,000  Level Atlanta Center
08:22PM 33.8539 -87.1131 249° West 405 466 40,000  Level Atlanta Center
08:23PM 33.8133 -87.2392 249° West 410 472 40,000  Level Atlanta Center
08:25PM 33.7717 -87.4633 257° West 423 487 40,000  Level Memphis Center
08:26PM 33.7414 -87.5994 255° West 423 487 40,000  Level Memphis Center
08:27PM 33.7150 -87.7350 257° West 423 487 40,000  Level Memphis Center
08:28PM 33.6886 -87.8681 257° West 418 481 40,000  Level Memphis Center
08:29PM 33.6408 -87.9844 244° Southwest 404 465 40,000  Level Memphis Center
08:30PM 33.5778 -88.0808 232° Southwest 380 437 40,000  Level Memphis Center
08:31PM 33.5150 -88.1819 233° Southwest 385 443 40,000  Level Memphis Center
08:32PM 33.4561 -88.2781 234° Southwest 379 436 40,000  Level Memphis Center
08:33PM 33.3928 -88.3717 231° Southwest 391 450 40,000  Level Memphis Center
08:34PM 33.3256 -88.4778 233° Southwest 397 457 40,000  Level Memphis Center
08:35PM 33.2603 -88.5808 233° Southwest 397 457 40,000  Level Memphis Center
08:36PM 33.1908 -88.6842 231° Southwest 402 463 40,000  Level Memphis Center
08:37PM 33.1233 -88.7872 232° Southwest 402 463 40,000  Level Memphis Center
08:38PM 33.0536 -88.8950 232° Southwest 402 463 40,000  Level Memphis Center
08:39PM 32.9858 -89.0000 232° Southwest 402 463 40,000  Level Memphis Center
08:40PM 32.9161 -89.1050 232° Southwest 402 463 40,000  Level Memphis Center
08:41PM 32.8461 -89.2075 231° Southwest 402 463 40,000  Level Memphis Center
08:42PM 32.7761 -89.3147 232° Southwest 402 463 40,000  Level Memphis Center
08:43PM 32.7058 -89.4192 231° Southwest 402 463 40,000  Level Memphis Center
08:44PM 32.6378 -89.5258 233° Southwest 402 463 40,000  Level Memphis Center
08:45PM 32.5717 -89.6350 234° Southwest 402 463 40,000  Level Memphis Center
08:46PM 32.5117 -89.7464 237° Southwest 407 468 40,000  Level Memphis Center
08:47PM 32.4539 -89.8575 238° Southwest 407 468 40,000  Level Memphis Center
08:48PM 32.3958 -89.9686 238° Southwest 407 468 40,000  Level Memphis Center
08:49PM 32.3375 -90.0794 238° Southwest 407 468 40,000  Level Memphis Center
08:50PM 32.2772 -90.1903 237° Southwest 407 468 40,000  Level Memphis Center
08:51PM 32.2167 -90.3008 237° Southwest 407 468 40,000  Level Memphis Center
08:53PM 32.0767 -90.5669 238° Southwest 396 456 40,000  Level Houston Center
08:54PM 32.0067 -90.6992 238° Southwest 397 457 40,000  Level Houston Center
08:55PM 31.9492 -90.8072 238° Southwest 402 463 40,000  Level Houston Center
08:56PM 31.8903 -90.9181 238° Southwest 398 458 40,000  Level Houston Center
08:57PM 31.8297 -91.0297 237° Southwest 404 465 40,000  Level Houston Center
08:59PM 31.7681 -91.1408 237° Southwest 405 466 40,000  Level Houston Center
09:00PM 31.6944 -91.2742 237° Southwest 405 466 40,000  Level Houston Center
09:01PM 31.6356 -91.3853 238° Southwest 403 464 40,000  Level Houston Center
09:02PM 31.5736 -91.4972 237° Southwest 407 468 40,000  Level Houston Center
09:03PM 31.5122 -91.6075 237° Southwest 405 466 40,000  Level Houston Center
09:04PM 31.4483 -91.7197 236° Southwest 409 471 40,000  Level Houston Center
09:05PM 31.3867 -91.8289 237° Southwest 403 464 40,000  Level Houston Center
09:06PM 31.3267 -91.9392 238° Southwest 401 461 40,000  Level Houston Center
09:07PM 31.2639 -92.0497 236° Southwest 402 463 40,000  Level Houston Center
09:08PM 31.1897 -92.1839 237° Southwest 407 468 40,000  Level Houston Center
09:09PM 31.1275 -92.2936 236° Southwest 403 464 40,000  Level Houston Center
09:10PM 31.0675 -92.4022 237° Southwest 404 465 40,000  Level Houston Center
09:11PM 31.0067 -92.5117 237° Southwest 404 465 40,000  Level Houston Center
09:12PM 30.9408 -92.6264 236° Southwest 405 466 40,000  Level Houston Center
09:13PM 30.8825 -92.7403 239° Southwest 410 472 40,000  Level Houston Center
09:14PM 30.8658 -92.8728 262° West 412 474 40,000  Level Houston Center
09:15PM 30.8592 -93.0225 267° West 412 474 40,000  Level Houston Center
09:16PM 30.8658 -93.1494 274° West 398 458 40,000  Level Houston Center
09:17PM 30.8747 -93.2739 275° West 389 448 40,000 -60 Level Houston Center
09:18PM 30.8858 -93.3961 276° West 384 442 39,900  Descending Houston Center
09:19PM 30.9033 -93.5158 280° West 381 438 40,000  Climbing Houston Center
09:20PM 30.9300 -93.6333 285° West 378 435 40,000  Level Houston Center
09:21PM 30.9631 -93.7725 286° West 375 432 40,000 -60 Level Houston Center
09:22PM 30.9906 -93.8869 286° West 370 426 39,900  Descending Houston Center
09:23PM 31.0158 -93.9978 285° West 367 422 40,000  Climbing Houston Center
09:24PM 31.0439 -94.1111 286° West 362 417 40,000  Level Houston Center
09:25PM 31.0717 -94.2253 286° West 359 413 40,000  Level Houston Center
09:26PM 31.0964 -94.3636 282° West 362 417 40,000  Level Houston Center
09:27PM 31.0744 -94.4764 257° West 351 404 40,000  Level Houston Center
09:28PM 31.0617 -94.5944 263° West 358 412 40,000  Level Houston Center
09:29PM 31.0536 -94.7214 266° West 392 451 40,000  Level Houston Center
09:30PM 31.0450 -94.8489 266° West 396 456 40,000  Level Houston Center
09:31PM 31.0389 -94.9758 267° West 393 452 40,000  Level Houston Center
09:32PM 31.0303 -95.1025 265° West 392 451 40,000  Level Houston Center
09:33PM 30.9883 -95.2164 247° West 384 442 40,000  Level Houston Center
09:34PM 30.9169 -95.3056 227° Southwest 377 434 40,000  Level Houston Center
09:36PM 30.8464 -95.3942 227° Southwest 374 430 40,000  Level Houston Center
09:37PM 30.7617 -95.5008 227° Southwest 375 432 40,000  Level Houston Center
09:38PM 30.6900 -95.5889 227° Southwest 376 433 40,000  Level Houston Center
09:39PM 30.6269 -95.6692 228° Southwest 376 433 40,000  Level Houston Center
09:40PM 30.5553 -95.7586 227° Southwest 379 436 40,000  Level Houston Center
09:41PM 30.4836 -95.8472 227° Southwest 379 436 40,000  Level Houston Center
09:42PM 30.3967 -95.9561 227° Southwest 386 444 40,000  Level Houston Center
09:43PM 30.3219 -96.0481 227° Southwest 387 445 40,000  Level Houston Center
09:44PM 30.2475 -96.1383 226° Southwest 384 442 40,000  Level Houston Center
09:45PM 30.1719 -96.2319 227° Southwest 392 451 40,000  Level Houston Center
09:46PM 30.1019 -96.3178 227° Southwest 393 452 40,000  Level Houston Center
09:47PM 30.0242 -96.4117 226° Southwest 403 464 40,000  Level Houston Center
09:48PM 29.9303 -96.5286 227° Southwest 413 475 40,000  Level Houston Center
09:49PM 29.8508 -96.6242 226° Southwest 413 475 40,000  Level Houston Center
09:50PM 29.7733 -96.7206 227° Southwest 411 473 40,000  Level Houston Center
09:51PM 29.6950 -96.8161 227° Southwest 410 472 40,000  Level Houston Center
09:52PM 29.6150 -96.9114 226° Southwest 415 478 40,000  Level Houston Center
09:53PM 29.5386 -97.0083 228° Southwest 414 476 40,000  Level Houston Center
09:54PM 29.4467 -97.1250 228° Southwest 416 479 40,000  Level Houston Center
09:55PM 29.3692 -97.2214 227° Southwest 417 480 40,000  Level Houston Center
09:56PM 29.2908 -97.3169 227° Southwest 414 476 40,000  Level Houston Center
09:57PM 29.2139 -97.4147 228° Southwest 416 479 40,000  Level Houston Center
09:58PM 29.1347 -97.5114 227° Southwest 417 480 40,000  Level Houston Center
09:59PM 29.0569 -97.6067 227° Southwest 412 474 40,000  Level Houston Center
10:00PM 28.9622 -97.7225 227° Southwest 417 480 40,000  Level Houston Center
10:01PM 28.8850 -97.8192 228° Southwest 413 475 40,000  Level Houston Center
10:02PM 28.8061 -97.9144 227° Southwest 413 475 40,000  Level Houston Center
10:03PM 28.7283 -98.0106 227° Southwest 413 475 40,000  Level Houston Center
10:04PM 28.6500 -98.1064 227° Southwest 414 476 40,000  Level Houston Center
10:05PM 28.5717 -98.2028 227° Southwest 414 476 40,000  Level Houston Center
10:06PM 28.4933 -98.2978 227° Southwest 413 475 40,000  Level Houston Center
10:07PM 28.4056 -98.4061 227° Southwest 413 475 40,000  Level Houston Center
10:08PM 28.3275 -98.5011 227° Southwest 412 474 40,000  Level Houston Center
10:09PM 28.2481 -98.5956 226° Southwest 414 476 40,000  Level Houston Center
10:10PM 28.1700 -98.6897 227° Southwest 413 475 40,000  Level Houston Center
10:11PM 28.0756 -98.8033 227° Southwest 414 476 40,000  Level Houston Center
10:12PM 27.9986 -98.8986 228° Southwest 412 474 40,000  Level Houston Center
10:14PM 27.9208 -98.9917 227° Southwest 410 472 40,000  Level Houston Center
10:15PM 27.8433 -99.0856 227° Southwest 411 473 40,000  Level Houston Center
10:16PM 27.7653 -99.1789 227° Southwest 412 474 40,000  Level Houston Center
10:17PM 27.6875 -99.2717 227° Southwest 413 475 40,000  Level Houston Center
10:18PM 27.5942 -99.3817 226° Southwest 409 471 40,000  Level Houston Center
10:19PM 27.5158 -99.4742 226° Southwest 409 471 40,000 -540 Level Houston Center
10:20PM 27.4308 -99.5569 221° Southwest 415 478 39,000 -1,020 Descending Houston Center
10:22PM 27.2497 -99.6155 195° South  Level FlightAware Approximate
10:29PM 26.5662 -99.8416 196° South  Level FlightAware Approximate
10:30PM 26.4683 -99.8729 196° South  Level FlightAware Approximate
10:31PM 26.3703 -99.9039 195° South  Level FlightAware Approximate
10:32PM 26.2719 -99.9334 195° South  Level FlightAware Approximate
10:33PM 26.1740 -99.9643 197° South  Level FlightAware Approximate
10:34PM 26.0764 -99.9968 197° South  Level FlightAware Approximate
10:35PM 25.9786 -100.0281 195° South  Level FlightAware Approximate
10:36PM 25.8803 -100.0576 195° South  Level FlightAware Approximate
10:37PM 25.7841 -100.0942 197° South  Level FlightAware Approximate
10:38PM 25.8197 -100.1717 304° West  Level FlightAware Approximate
10:39PM 25.8656 -100.2372 304° West  Level Estimated
10:40PM 25.8656 -100.2372 304° West  Level Estimated
10:41PM 25.8656 -100.2372 304° West  Level Estimated
10:42PM 25.8656 -100.2372 304° West  Level Estimated
10:43PM 25.8656 -100.2372 304° West  Level Estimated
10:44PM 25.8656 -100.2372 304° West  Level Estimated
10:45PM 25.8656 -100.2372 304° West  Level Estimated
10:46PM 25.8656 -100.2372 304° West  Level Estimated
10:47PM 25.8656 -100.2372 304° West  Level Estimated
10:48PM 25.8656 -100.2372 304° West  Level Estimated
10:49PM 25.8656 -100.2372 304° West  Level Estimated
10:50PM 25.8656 -100.2372 304° West  Level Estimated
10:51PM 25.8656 -100.2372 304° West  Level Estimated
10:52PM 25.8656 -100.2372 304° West  Level Estimated
10:53PM 25.8656 -100.2372 304° West  Level Estimated
10:54PM 25.8656 -100.2372 304° West  Level Estimated
10:55PM 25.8656 -100.2372 304° West  Level Estimated
10:56PM 25.8656 -100.2372 304° West  Level Estimated
10:57PM 25.8656 -100.2372 304° West  Level Estimated
10:58PM 25.8656 -100.2372 304° West  Level Estimated